Time;durP1;ratioP1;P1;durP2;ratioP2;P2;SDS_P1;SDS_P2;PMS_P1;PMS_P2;Temp;Humidity;BMP_temperature;BMP_pressure;BME280_temperature;BME280_humidity;BME280_pressure;Samples;Min_cycle;Max_cycle;Signal;HPM_P1;HPM_P2
2021/05/14 00:00:11;;;;;;;36.73;18.00;;;;;;;21.25;42.44;100068.66;5114805;27;20481;-55
2021/05/14 00:02:39;;;;;;;44.27;19.37;;;;;;;21.06;42.61;100070.66;5118927;28;20460;-56
2021/05/14 00:05:08;;;;;;;39.03;19.80;;;;;;;20.86;43.21;100068.28;5117620;28;20500;-57
2021/05/14 00:07:35;;;;;;;41.97;20.10;;;;;;;20.87;43.14;100068.25;5118109;28;20463;-56
2021/05/14 00:10:03;;;;;;;46.43;21.57;;;;;;;21.31;42.48;100072.94;5117368;27;20525;-56
2021/05/14 00:12:31;;;;;;;42.20;20.70;;;;;;;20.69;43.36;100074.53;5116005;28;20533;-55
2021/05/14 00:14:59;;;;;;;40.67;21.40;;;;;;;20.30;45.00;100072.31;5117635;27;20526;-55
2021/05/14 00:17:26;;;;;;;39.70;22.00;;;;;;;20.53;43.54;100063.38;5118155;28;20563;-53
2021/05/14 00:19:53;;;;;;;51.60;21.60;;;;;;;20.73;43.72;100070.13;5117526;28;20468;-55
2021/05/14 00:22:21;;;;;;;47.90;23.10;;;;;;;20.54;43.89;100069.44;5118107;28;20457;-55
2021/05/14 00:24:48;;;;;;;46.40;22.70;;;;;;;20.91;43.39;100077.81;5116939;28;20468;-56
2021/05/14 00:27:15;;;;;;;49.37;21.37;;;;;;;20.94;43.24;100079.53;5117856;28;20539;-56
2021/05/14 00:29:43;;;;;;;51.67;23.00;;;;;;;21.14;42.95;100074.06;5116989;27;20844;-56
2021/05/14 00:32:11;;;;;;;41.83;21.73;;;;;;;20.60;44.15;100070.28;5115689;28;20556;-57
2021/05/14 00:34:38;;;;;;;49.80;22.57;;;;;;;20.43;44.47;100065.22;5116977;28;20557;-56
2021/05/14 00:37:05;;;;;;;48.73;22.70;;;;;;;20.55;43.81;100064.22;5117770;28;20449;-56
2021/05/14 00:39:33;;;;;;;42.53;20.73;;;;;;;20.89;42.95;100058.63;5116715;27;20518;-57
2021/05/14 00:42:00;;;;;;;41.63;19.30;;;;;;;20.64;44.27;100058.00;5118285;28;20449;-57
2021/05/14 00:44:30;;;;;;;45.30;21.93;;;;;;;20.66;43.58;100063.22;5116543;27;20468;-57
2021/05/14 00:47:00;;;;;;;35.80;20.50;;;;;;;20.29;44.44;100070.56;5116816;28;20814;-56
2021/05/14 00:49:28;;;;;;;42.50;19.77;;;;;;;20.98;43.03;100064.63;5116704;28;20479;-56
2021/05/14 00:51:56;;;;;;;34.07;18.97;;;;;;;20.59;43.70;100067.66;5117835;28;20465;-57
2021/05/14 00:54:26;;;;;;;39.53;19.90;;;;;;;20.96;42.99;100064.66;5115051;28;20961;-56
2021/05/14 00:56:53;;;;;;;41.13;19.20;;;;;;;21.03;42.64;100057.59;5117218;28;20548;-53
2021/05/14 00:59:20;;;;;;;41.77;18.67;;;;;;;20.99;42.97;100063.75;5116429;27;20560;-54
2021/05/14 01:01:48;;;;;;;41.63;16.87;;;;;;;20.77;43.55;100061.38;5117601;28;20540;-52
2021/05/14 01:04:17;;;;;;;36.93;17.80;;;;;;;21.04;42.95;100062.78;5116862;27;20566;-53
2021/05/14 01:06:44;;;;;;;40.43;17.00;;;;;;;20.61;43.98;100061.53;5117535;28;20540;-54
2021/05/14 01:09:13;;;;;;;37.90;16.40;;;;;;;21.00;42.97;100057.59;5116761;27;20476;-53
2021/05/14 01:11:40;;;;;;;37.90;18.03;;;;;;;20.20;45.04;100060.19;5117870;28;20459;-51
2021/05/14 01:14:07;;;;;;;40.23;17.60;;;;;;;20.87;43.54;100056.91;5116822;27;20471;-52
2021/05/14 01:16:35;;;;;;;38.50;17.10;;;;;;;20.72;44.18;100052.69;5117576;28;20836;-53
2021/05/14 01:19:03;;;;;;;29.43;16.40;;;;;;;20.86;43.12;100056.03;5116924;27;20542;-55
2021/05/14 01:21:31;;;;;;;28.03;17.10;;;;;;;20.81;43.09;100049.09;5116799;28;20464;-52
2021/05/14 01:23:58;;;;;;;37.33;16.80;;;;;;;20.71;43.17;100059.66;5117033;27;20571;-51
2021/05/14 01:26:26;;;;;;;47.27;17.30;;;;;;;21.22;42.57;100054.72;5116709;28;20467;-52
2021/05/14 01:28:54;;;;;;;31.10;17.20;;;;;;;21.26;42.28;100054.66;5115884;28;20484;-52
2021/05/14 01:31:21;;;;;;;41.13;17.97;;;;;;;21.14;42.64;100055.69;5114443;28;20480;-50
2021/05/14 01:33:48;;;;;;;44.43;19.40;;;;;;;20.58;43.51;100051.09;5115641;27;20548;-56
2021/05/14 01:36:16;;;;;;;45.03;18.13;;;;;;;20.25;44.61;100047.91;5116956;28;20476;-54
2021/05/14 01:38:44;;;;;;;33.97;17.20;;;;;;;20.36;44.38;100048.69;5113204;28;20780;-51
2021/05/14 01:41:12;;;;;;;38.97;17.93;;;;;;;20.27;44.78;100046.16;5116759;28;21212;-55
2021/05/14 01:43:39;;;;;;;40.20;20.27;;;;;;;20.78;43.35;100047.38;5116513;28;20826;-51
2021/05/14 01:46:06;;;;;;;37.17;18.30;;;;;;;20.75;43.75;100052.63;5115384;27;20461;-52
2021/05/14 01:48:33;;;;;;;41.90;19.30;;;;;;;20.89;43.02;100050.75;5116086;28;20563;-53
2021/05/14 01:51:05;;;;;;;44.70;19.30;;;;;;;20.77;43.76;100054.34;5115654;28;20519;-52
2021/05/14 01:53:32;;;;;;;42.40;19.20;;;;;;;20.82;43.67;100049.03;5111209;28;20461;-55
2021/05/14 01:56:00;;;;;;;41.13;19.17;;;;;;;20.98;43.26;100044.50;5115106;27;20477;-54
2021/05/14 01:58:27;;;;;;;37.27;19.30;;;;;;;20.66;43.51;100050.13;5116303;28;20516;-48
2021/05/14 02:00:54;;;;;;;37.87;19.90;;;;;;;20.59;43.70;100044.97;5115264;27;20646;-52
2021/05/14 02:03:21;;;;;;;39.87;18.13;;;;;;;20.44;44.18;100042.47;5116393;28;20543;-52
2021/05/14 02:05:48;;;;;;;37.10;19.60;;;;;;;20.82;43.34;100042.97;5114953;28;20572;-52
2021/05/14 02:08:16;;;;;;;41.10;18.63;;;;;;;21.36;41.98;100038.78;5115864;28;20507;-56
2021/05/14 02:10:43;;;;;;;36.50;19.27;;;;;;;21.35;42.33;100043.16;5112294;28;20786;-49
2021/05/14 02:13:11;;;;;;;47.67;19.40;;;;;;;20.99;42.75;100040.16;5116386;28;20582;-52
2021/05/14 02:15:39;;;;;;;33.30;18.73;;;;;;;20.59;43.67;100037.09;5114554;27;20463;-51
2021/05/14 02:18:06;;;;;;;37.20;18.83;;;;;;;20.89;43.00;100044.63;5115439;28;20464;-52
2021/05/14 02:20:34;;;;;;;43.40;19.97;;;;;;;21.18;42.55;100041.63;5115235;28;20547;-53
2021/05/14 02:23:01;;;;;;;47.30;20.00;;;;;;;21.08;42.70;100040.03;5115536;28;20456;-52
2021/05/14 02:25:28;;;;;;;35.33;18.77;;;;;;;21.26;42.19;100043.28;5114569;27;20989;-51
2021/05/14 02:27:55;;;;;;;38.90;19.20;;;;;;;21.09;42.84;100036.53;5115622;28;20483;-55
2021/05/14 02:30:24;;;;;;;34.80;18.37;;;;;;;21.02;42.73;100040.13;5111949;27;20508;-53
2021/05/14 02:32:51;;;;;;;37.40;19.00;;;;;;;21.06;43.11;100035.72;5115981;28;20463;-50
2021/05/14 02:35:18;;;;;;;42.70;19.30;;;;;;;21.31;41.88;100036.22;5114547;28;20461;-52
2021/05/14 02:37:46;;;;;;;32.80;18.57;;;;;;;21.15;42.49;100041.69;5115223;28;20942;-52
2021/05/14 02:40:14;;;;;;;31.07;17.67;;;;;;;20.81;43.13;100046.47;5114583;27;20772;-55
2021/05/14 02:42:41;;;;;;;36.33;18.23;;;;;;;20.89;43.26;100042.91;5115905;28;20452;-52
2021/05/14 02:45:09;;;;;;;43.03;18.87;;;;;;;20.94;43.03;100039.34;5114071;28;20479;-53
2021/05/14 02:47:37;;;;;;;39.20;18.93;;;;;;;20.94;42.87;100026.22;5115059;28;20459;-54
2021/05/14 02:50:06;;;;;;;43.77;20.47;;;;;;;20.58;43.54;100030.13;5112190;28;20473;-53
2021/05/14 02:52:33;;;;;;;46.13;18.93;;;;;;;20.87;43.22;100036.78;5115417;28;20460;-49
2021/05/14 02:55:00;;;;;;;44.97;22.30;;;;;;;21.26;42.71;100040.66;5114449;27;20776;-51
2021/05/14 02:57:28;;;;;;;39.47;22.70;;;;;;;20.76;43.87;100036.00;5115238;28;20540;-50
2021/05/14 02:59:55;;;;;;;46.13;22.17;;;;;;;21.02;42.96;100034.88;5114143;28;20512;-51
2021/05/14 03:02:22;;;;;;;54.40;23.90;;;;;;;20.32;44.51;100036.50;5112720;28;20489;-51
2021/05/14 03:04:50;;;;;;;60.00;24.20;;;;;;;20.77;43.79;100035.16;5114610;28;20745;-51
2021/05/14 03:07:19;;;;;;;61.40;25.40;;;;;;;20.62;43.71;100037.03;5115495;28;20471;-54
2021/05/14 03:09:46;;;;;;;56.80;25.20;;;;;;;20.68;43.94;100030.00;5113307;27;20922;-54
2021/05/14 03:12:13;;;;;;;56.70;23.17;;;;;;;20.29;44.29;100028.66;5115493;28;20457;-55
2021/05/14 03:14:41;;;;;;;60.90;25.77;;;;;;;20.55;43.60;100032.75;5114060;28;20469;-53
2021/05/14 03:17:08;;;;;;;65.83;25.70;;;;;;;20.72;43.64;100034.34;5115029;28;20826;-50
2021/05/14 03:19:35;;;;;;;64.70;26.10;;;;;;;20.81;43.44;100033.34;5114270;27;20472;-54
2021/05/14 03:22:03;;;;;;;50.00;24.30;;;;;;;20.16;45.01;100027.06;5115294;28;20775;-52
2021/05/14 03:24:32;;;;;;;56.53;24.20;;;;;;;19.84;45.54;100027.31;5114117;28;20477;-54
2021/05/14 03:26:59;;;;;;;50.23;23.70;;;;;;;20.41;44.21;100018.97;5115007;28;20492;-50
2021/05/14 03:29:26;;;;;;;57.83;23.90;;;;;;;20.53;43.92;100024.06;5113916;27;20505;-53
2021/05/14 03:31:53;;;;;;;46.23;23.37;;;;;;;21.02;42.52;100034.88;5114717;28;20915;-52
2021/05/14 03:34:21;;;;;;;46.73;22.87;;;;;;;20.57;43.80;100028.41;5114587;28;20777;-54
2021/05/14 03:36:48;;;;;;;58.37;21.83;;;;;;;20.28;44.17;100034.81;5115243;28;20532;-51
2021/05/14 03:39:21;;;;;;;54.77;20.57;;;;;;;20.49;43.26;100025.84;5114442;28;20568;-51
2021/05/14 03:41:49;;;;;;;50.70;23.20;;;;;;;20.46;44.04;100038.97;5115479;28;20551;-53
2021/05/14 03:44:17;;;;;;;50.70;22.60;;;;;;;20.90;42.52;100036.75;5113926;28;20559;-54
2021/05/14 03:46:44;;;;;;;42.70;20.03;;;;;;;20.65;43.34;100025.66;5115221;28;20464;-52
2021/05/14 03:49:11;;;;;;;38.37;17.80;;;;;;;20.51;43.46;100023.22;5114647;28;20469;-53
2021/05/14 03:51:38;;;;;;;36.67;18.00;;;;;;;19.95;44.62;100013.25;5115129;28;20463;-56
2021/05/14 03:54:06;;;;;;;41.67;19.37;;;;;;;20.59;43.46;100021.38;5094030;28;20549;-52
2021/05/14 03:56:34;;;;;;;39.33;19.53;;;;;;;20.53;43.31;100017.94;5094314;28;20473;-52
2021/05/14 03:59:01;;;;;;;47.77;21.97;;;;;;;20.75;42.93;100021.19;5094175;28;20470;-55
2021/05/14 04:01:29;;;;;;;40.17;18.43;;;;;;;20.93;42.20;100021.88;5094816;28;20480;-53
2021/05/14 04:03:56;;;;;;;51.40;20.67;;;;;;;20.53;43.46;100026.69;5093217;28;20781;-55
2021/05/14 04:06:24;;;;;;;45.60;17.60;;;;;;;20.46;43.37;100019.78;5094270;28;20477;-51
2021/05/14 04:08:51;;;;;;;70.17;39.13;;;;;;;20.40;43.83;100025.09;5093414;28;20560;-51
2021/05/14 04:11:42;;;;;;;39.37;17.07;;;;;;;20.03;44.24;100021.94;5094427;28;20481;-55
2021/05/14 04:14:30;;;;;;;39.80;17.70;;;;;;;20.56;43.19;100018.78;5093538;28;20469;-51
2021/05/14 04:17:07;;;;;;;58.93;31.73;;;;;;;20.84;42.80;100020.19;5104689;28;20479;-50
2021/05/14 04:19:35;;;;;;;45.93;22.57;;;;;;;21.08;42.37;100013.81;5113780;28;20515;-52
2021/05/14 04:22:04;;;;;;;47.87;25.93;;;;;;;20.78;42.09;100015.91;5116712;28;20543;-51
2021/05/14 04:24:31;;;;;;;142.03;59.43;;;;;;;20.76;42.24;100023.78;5117395;28;20567;-54
2021/05/14 04:26:58;;;;;;;30.43;15.57;;;;;;;20.79;42.56;100022.88;5118347;28;20453;-50
2021/05/14 04:29:27;;;;;;;47.60;19.90;;;;;;;20.17;43.62;100018.31;5117141;28;20483;-52
2021/05/14 04:31:54;;;;;;;40.77;14.10;;;;;;;19.52;45.02;100023.19;5118094;28;20557;-53
2021/05/14 04:34:21;;;;;;;44.73;17.90;;;;;;;20.21;43.08;100030.50;5116964;28;20843;-50
2021/05/14 04:36:56;;;;;;;32.17;16.87;;;;;;;20.54;42.32;100027.53;5118083;28;20456;-51
2021/05/14 04:39:23;;;;;;;102.70;42.90;;;;;;;20.67;41.96;100029.16;5117088;28;20507;-56
2021/05/14 04:41:50;;;;;;;35.60;16.77;;;;;;;19.80;43.89;100033.44;5118051;28;20457;-50
2021/05/14 04:44:18;;;;;;;29.03;14.37;;;;;;;20.12;43.21;100025.34;5116736;28;20503;-51
2021/05/14 04:46:46;;;;;;;74.67;33.83;;;;;;;20.66;41.99;100029.16;5117476;28;20452;-51
2021/05/14 04:49:13;;;;;;;46.37;17.27;;;;;;;20.24;42.70;100036.59;5116487;28;20473;-50
2021/05/14 04:51:40;;;;;;;46.07;23.50;;;;;;;20.57;42.94;100027.50;5118015;28;20801;-50
2021/05/14 04:54:08;;;;;;;33.80;17.17;;;;;;;19.88;43.97;100022.91;5116497;28;20473;-50
2021/05/14 04:56:35;;;;;;;31.07;14.07;;;;;;;19.96;44.54;100018.50;5117625;28;20479;-51
2021/05/14 04:59:02;;;;;;;36.97;17.10;;;;;;;19.86;44.46;100026.41;5116358;28;20505;-52
2021/05/14 05:01:29;;;;;;;40.73;19.90;;;;;;;20.30;42.92;100030.41;5117766;28;20453;-50
2021/05/14 05:03:59;;;;;;;56.20;20.90;;;;;;;20.58;41.80;100019.66;5116405;28;20457;-52
2021/05/14 05:06:26;;;;;;;31.30;14.10;;;;;;;20.62;42.19;100021.31;5117353;28;20567;-53
2021/05/14 05:08:53;;;;;;;27.93;13.00;;;;;;;20.05;43.51;100025.41;5116270;27;20473;-51
2021/05/14 05:11:20;;;;;;;30.93;12.13;;;;;;;19.72;44.16;100024.78;5117512;28;20487;-50
2021/05/14 05:13:47;;;;;;;32.33;13.80;;;;;;;19.69;43.99;100027.44;5116011;28;20453;-49
2021/05/14 05:16:14;;;;;;;30.33;13.83;;;;;;;20.10;42.99;100018.38;5117362;28;20945;-52
2021/05/14 05:18:41;;;;;;;38.70;17.33;;;;;;;20.32;42.52;100033.00;5116413;28;20473;-53
2021/05/14 05:21:09;;;;;;;28.77;12.50;;;;;;;20.68;42.40;100033.50;5117355;28;20488;-51
2021/05/14 05:23:36;;;;;;;41.07;15.10;;;;;;;20.72;41.98;100031.72;5117207;28;20461;-54
2021/05/14 05:26:03;;;;;;;115.67;53.07;;;;;;;20.62;42.85;100033.56;5115779;28;20552;-51
2021/05/14 05:28:32;;;;;;;33.77;14.10;;;;;;;19.87;43.91;100039.50;5116877;28;20477;-52
2021/05/14 05:31:00;;;;;;;31.87;12.23;;;;;;;19.96;43.75;100051.69;5115863;28;20966;-49
2021/05/14 05:33:27;;;;;;;51.33;16.97;;;;;;;20.46;42.66;100045.97;5116872;28;20445;-53
2021/05/14 05:35:54;;;;;;;35.83;11.50;;;;;;;20.47;42.39;100042.47;5115226;28;20508;-52
2021/05/14 05:38:24;;;;;;;32.30;12.50;;;;;;;20.81;42.26;100049.09;5116770;28;20476;-50
2021/05/14 05:40:52;;;;;;;25.33;10.70;;;;;;;20.59;42.17;100039.72;5115766;28;20504;-54
2021/05/14 05:43:19;;;;;;;27.07;11.30;;;;;;;20.39;42.26;100049.56;5117078;28;20465;-51
2021/05/14 05:45:46;;;;;;;32.13;11.10;;;;;;;20.41;42.59;100047.78;5114990;28;20556;-51
2021/05/14 05:48:14;;;;;;;20.50;9.47;;;;;;;20.33;42.83;100048.72;5116426;28;20476;-54
2021/05/14 05:50:42;;;;;;;24.60;11.60;;;;;;;20.58;42.31;100048.47;5115978;28;20493;-54
2021/05/14 05:53:09;;;;;;;28.10;11.90;;;;;;;20.73;41.63;100049.16;5116739;28;20989;-54
2021/05/14 05:55:38;;;;;;;29.07;12.30;;;;;;;20.68;41.69;100050.97;5115242;28;20473;-48
2021/05/14 05:58:06;;;;;;;29.43;11.33;;;;;;;20.09;43.09;100052.41;5116375;28;20494;-52
2021/05/14 06:00:33;;;;;;;29.67;12.70;;;;;;;20.08;43.06;100041.09;5115106;28;20485;-50
2021/05/14 06:03:01;;;;;;;33.50;11.57;;;;;;;20.02;42.96;100043.78;5116591;28;20459;-52
2021/05/14 06:05:28;;;;;;;29.27;13.00;;;;;;;20.39;42.45;100039.91;5115121;28;20957;-53
2021/05/14 06:07:55;;;;;;;28.87;12.80;;;;;;;19.93;43.83;100047.28;5115679;28;20479;-49
2021/05/14 06:10:23;;;;;;;29.20;12.87;;;;;;;19.82;44.59;100049.13;5115181;28;20481;-49
2021/05/14 06:12:51;;;;;;;25.23;10.67;;;;;;;20.32;43.10;100052.22;5116552;28;20544;-51
2021/05/14 06:15:18;;;;;;;26.90;11.00;;;;;;;19.71;44.05;100049.22;5115086;28;20481;-51
2021/05/14 06:17:46;;;;;;;30.50;11.30;;;;;;;20.08;43.34;100046.34;5115807;28;20483;-53
2021/05/14 06:20:16;;;;;;;23.50;10.67;;;;;;;20.44;42.75;100040.75;5115518;28;20537;-51
2021/05/14 06:22:44;;;;;;;28.93;11.17;;;;;;;20.40;42.61;100056.53;5116180;28;20481;-53
2021/05/14 06:25:11;;;;;;;33.87;15.33;;;;;;;20.50;42.63;100052.91;5114843;28;20776;-51
2021/05/14 06:27:38;;;;;;;55.53;23.77;;;;;;;20.21;43.71;100054.94;5115737;28;20512;-52
2021/05/14 06:30:08;;;;;;;32.97;11.27;;;;;;;20.15;43.22;100065.47;5114256;28;20472;-50
2021/05/14 06:32:35;;;;;;;31.27;12.00;;;;;;;20.66;41.92;100063.22;5116010;28;20511;-54
2021/05/14 06:35:03;;;;;;;26.20;11.83;;;;;;;21.01;41.26;100067.22;5114195;28;20476;-52
2021/05/14 06:37:30;;;;;;;29.30;11.57;;;;;;;20.67;42.38;100075.44;5115708;28;20488;-50
2021/05/14 06:39:58;;;;;;;37.70;16.43;;;;;;;20.70;42.56;100078.00;5114514;28;20572;-51
2021/05/14 06:42:25;;;;;;;40.97;17.20;;;;;;;20.77;42.64;100072.69;5116019;28;20771;-52
2021/05/14 06:44:53;;;;;;;30.57;11.30;;;;;;;21.04;41.06;100075.91;5113742;28;20495;-48
2021/05/14 06:47:21;;;;;;;32.80;11.80;;;;;;;20.80;41.98;100066.56;5115239;28;20849;-55
2021/05/14 06:49:48;;;;;;;27.07;10.57;;;;;;;19.84;43.86;100074.41;5114299;28;20471;-50
2021/05/14 06:52:15;;;;;;;24.47;11.20;;;;;;;20.64;42.53;100069.38;5115782;28;20459;-52
2021/05/14 06:54:42;;;;;;;24.00;9.83;;;;;;;20.14;43.41;100065.50;5114460;28;20939;-50
2021/05/14 06:57:10;;;;;;;31.10;10.57;;;;;;;20.21;42.48;100072.41;5115346;28;20939;-50
2021/05/14 06:59:37;;;;;;;30.07;12.30;;;;;;;20.54;42.74;100067.72;5114179;28;20599;-53
2021/05/14 07:02:04;;;;;;;73.97;25.27;;;;;;;20.82;43.52;100059.53;5115386;28;20453;-48
2021/05/14 07:04:32;;;;;;;93.03;32.53;;;;;;;20.93;42.16;100066.44;5114511;28;20487;-54
2021/05/14 07:06:59;;;;;;;28.23;11.43;;;;;;;21.17;40.86;100073.13;5115090;28;20485;-50
2021/05/14 07:09:26;;;;;;;25.40;11.53;;;;;;;20.97;40.75;100069.00;5114088;28;20481;-53
2021/05/14 07:11:53;;;;;;;25.83;10.40;;;;;;;20.20;42.99;100062.81;5115390;28;20452;-52
2021/05/14 07:14:21;;;;;;;30.83;11.13;;;;;;;20.40;42.51;100059.13;5114207;28;20483;-55
2021/05/14 07:16:50;;;;;;;33.17;14.30;;;;;;;20.94;42.19;100065.56;5114908;28;20449;-52
2021/05/14 07:19:17;;;;;;;22.53;10.90;;;;;;;20.35;42.30;100067.91;5114806;28;20469;-50
2021/05/14 07:21:45;;;;;;;29.73;11.80;;;;;;;20.27;43.18;100072.34;5115347;28;20453;-52
2021/05/14 07:24:12;;;;;;;24.73;9.30;;;;;;;20.20;43.11;100075.91;5114188;28;20764;-52
2021/05/14 07:26:40;;;;;;;26.13;9.63;;;;;;;20.71;42.00;100066.69;5114944;28;21008;-51
2021/05/14 07:29:07;;;;;;;27.40;11.30;;;;;;;20.40;42.84;100073.09;5113836;28;20472;-54
2021/05/14 07:31:35;;;;;;;27.43;11.07;;;;;;;20.42;41.94;100073.97;5115506;28;20452;-54
2021/05/14 07:34:03;;;;;;;22.73;10.47;;;;;;;20.47;42.03;100073.91;5113757;28;20476;-52
2021/05/14 07:36:30;;;;;;;22.37;9.73;;;;;;;20.39;42.33;100078.38;5114822;28;20532;-50
2021/05/14 07:38:58;;;;;;;23.90;8.63;;;;;;;19.84;43.27;100076.16;5114205;28;20582;-51
2021/05/14 07:41:25;;;;;;;25.60;10.40;;;;;;;20.01;43.40;100070.84;5115197;28;20882;-53
2021/05/14 07:43:53;;;;;;;32.27;12.17;;;;;;;19.69;44.17;100074.53;5113552;28;20472;-48
2021/05/14 07:46:20;;;;;;;36.17;10.80;;;;;;;20.26;43.35;100070.63;5115002;28;20515;-50
2021/05/14 07:48:49;;;;;;;28.20;10.80;;;;;;;20.39;42.55;100070.50;5114254;28;20487;-51
2021/05/14 07:51:16;;;;;;;31.77;10.30;;;;;;;19.73;44.16;100073.63;5114911;28;21012;-51
2021/05/14 07:53:43;;;;;;;26.03;10.13;;;;;;;20.63;42.22;100078.09;5113732;28;20890;-50
2021/05/14 07:56:11;;;;;;;26.33;10.43;;;;;;;19.61;43.90;100082.44;5117432;28;20477;-53
2021/05/14 07:58:38;;;;;;;30.07;9.53;;;;;;;19.80;43.17;100088.38;5118747;28;20480;-55
2021/05/14 08:01:05;;;;;;;30.47;9.33;;;;;;;20.61;42.13;100082.47;5117598;28;20480;-52
2021/05/14 08:03:32;;;;;;;29.53;10.20;;;;;;;20.82;41.61;100084.88;5119091;28;20450;-53
2021/05/14 08:05:59;;;;;;;23.63;8.10;;;;;;;20.54;42.13;100090.41;5117541;28;20496;-52
2021/05/14 08:08:28;;;;;;;21.60;9.20;;;;;;;20.68;41.99;100093.78;5118478;28;20473;-51
2021/05/14 08:10:55;;;;;;;24.70;8.47;;;;;;;20.94;41.17;100094.38;5117595;28;20516;-55
2021/05/14 08:13:25;;;;;;;21.00;7.03;;;;;;;19.41;43.70;100101.72;5118490;28;20525;-52
2021/05/14 08:15:53;;;;;;;26.37;8.80;;;;;;;20.45;42.13;100097.50;5117387;28;20476;-51
2021/05/14 08:18:21;;;;;;;23.60;8.10;;;;;;;20.81;41.33;100096.28;5118237;28;20820;-49
2021/05/14 08:20:49;;;;;;;24.67;8.17;;;;;;;20.18;42.35;100099.47;5117341;28;20530;-52
2021/05/14 08:23:19;;;;;;;30.30;9.20;;;;;;;20.03;43.21;100116.19;5118543;28;20493;-50
2021/05/14 08:25:47;;;;;;;27.40;8.70;;;;;;;20.75;41.08;100102.44;5116545;28;20534;-53
2021/05/14 08:28:14;;;;;;;31.47;8.47;;;;;;;20.27;42.01;100098.53;5118046;28;20477;-54
2021/05/14 08:30:44;;;;;;;30.10;8.40;;;;;;;20.80;41.18;100103.25;5116791;27;20469;-51
2021/05/14 08:33:11;;;;;;;26.67;8.57;;;;;;;20.43;41.47;100114.09;5118359;28;20480;-52
2021/05/14 08:35:39;;;;;;;24.13;8.73;;;;;;;19.86;43.28;100112.78;5117385;28;20467;-53
2021/05/14 08:38:07;;;;;;;24.47;9.70;;;;;;;20.65;40.99;100109.53;5117411;28;20964;-49
2021/05/14 08:40:37;;;;;;;39.53;13.27;;;;;;;20.59;41.52;100104.34;5116948;27;20500;-51
2021/05/14 08:43:07;;;;;;;36.73;15.23;;;;;;;20.46;41.47;100107.09;5117584;28;20460;-53
2021/05/14 08:45:34;;;;;;;30.63;10.00;;;;;;;20.99;40.60;100103.94;5116265;28;21147;-50
2021/05/14 08:48:04;;;;;;;147.30;36.90;;;;;;;20.46;41.50;100108.84;5116514;28;20948;-50
2021/05/14 08:50:31;;;;;;;66.63;20.70;;;;;;;20.64;41.50;100098.19;5111047;28;20487;-52
2021/05/14 08:52:59;;;;;;;25.40;9.37;;;;;;;20.67;41.02;100099.03;5109513;28;21033;-49
2021/05/14 08:55:26;;;;;;;18.70;8.10;;;;;;;20.83;40.44;100103.22;5106401;28;20560;-53
2021/05/14 08:57:53;;;;;;;24.43;6.80;;;;;;;20.95;40.36;100101.34;5104375;28;20496;-53
2021/05/14 09:00:21;;;;;;;26.70;7.33;;;;;;;20.47;41.57;100105.34;5116416;28;20929;-50
2021/05/14 09:02:48;;;;;;;25.20;8.73;;;;;;;20.49;41.06;100104.44;5117599;28;20460;-51
2021/05/14 09:05:25;;;;;;;24.70;7.57;;;;;;;20.60;40.97;100104.34;5116510;28;20760;-54
2021/05/14 09:07:55;;;;;;;20.27;7.77;;;;;;;20.75;40.72;100099.81;5116064;28;20846;-56
2021/05/14 09:10:23;;;;;;;22.27;8.50;;;;;;;20.71;41.14;100101.59;5116007;27;20560;-51
2021/05/14 09:12:50;;;;;;;22.90;8.23;;;;;;;20.59;41.39;100099.97;5117544;28;20459;-51
2021/05/14 09:15:26;;;;;;;23.70;7.40;;;;;;;20.42;42.13;100101.91;5116223;28;20504;-54
2021/05/14 09:18:17;;;;;;;49.20;17.53;;;;;;;20.80;41.20;100107.63;5116963;28;20522;-52
2021/05/14 09:20:47;;;;;;;27.20;8.93;;;;;;;20.46;42.29;100119.31;5101653;28;20468;-49
2021/05/14 09:23:31;;;;;;;36.27;15.87;;;;;;;20.41;42.09;100126.34;5117400;28;20452;-51
2021/05/14 09:26:00;;;;;;;39.23;12.37;;;;;;;20.35;42.00;100122.03;5115404;28;20464;-51
2021/05/14 09:28:29;;;;;;;22.37;8.40;;;;;;;20.31;42.80;100126.41;5116756;28;20485;-54
2021/05/14 09:31:10;;;;;;;41.07;13.73;;;;;;;20.62;41.44;100126.13;5115948;27;20940;-50
2021/05/14 09:33:38;;;;;;;31.37;9.47;;;;;;;20.34;42.85;100123.78;5117067;28;20905;-52
2021/05/14 09:36:08;;;;;;;24.83;8.30;;;;;;;20.51;41.93;100118.38;5115707;28;20469;-55
2021/05/14 09:38:46;;;;;;;41.53;16.00;;;;;;;20.39;42.62;100133.38;5116917;28;20476;-50
2021/05/14 09:41:35;;;;;;;31.73;9.37;;;;;;;20.13;43.18;100127.44;5096469;28;20468;-52
2021/05/14 09:44:07;;;;;;;28.40;9.27;;;;;;;20.06;43.44;100134.47;5098111;28;20468;-52
2021/05/14 09:46:37;;;;;;;37.60;12.87;;;;;;;20.94;41.19;100125.84;5116498;28;20844;-49
2021/05/14 09:49:07;;;;;;;63.03;20.20;;;;;;;20.61;41.89;100127.03;5115729;28;20507;-52
2021/05/14 09:51:46;;;;;;;35.57;13.10;;;;;;;20.52;41.75;100135.00;5116964;28;20457;-52
2021/05/14 09:54:27;;;;;;;40.13;10.23;;;;;;;20.06;43.19;100137.09;5115222;28;20473;-49
2021/05/14 09:57:16;;;;;;;24.53;11.30;;;;;;;20.57;41.65;100132.31;5116329;28;20449;-51
2021/05/14 09:59:43;;;;;;;25.77;10.13;;;;;;;20.13;42.56;100137.03;5115173;28;20621;-50
2021/05/14 10:02:20;;;;;;;35.30;12.70;;;;;;;20.41;42.08;100137.69;5116523;28;20535;-51
2021/05/14 10:04:47;;;;;;;42.60;13.57;;;;;;;20.28;42.48;100141.28;5098972;28;20571;-53
2021/05/14 10:07:16;;;;;;;24.23;9.60;;;;;;;20.29;42.10;100148.25;5095689;28;20569;-49
2021/05/14 10:09:46;;;;;;;25.90;10.93;;;;;;;20.05;42.79;100144.97;5094006;28;20483;-51
2021/05/14 10:12:15;;;;;;;27.60;9.90;;;;;;;20.51;41.97;100143.75;5095916;28;20891;-53
2021/05/14 10:14:42;;;;;;;36.07;9.27;;;;;;;20.19;42.55;100142.25;5094668;28;20470;-51
2021/05/14 10:17:10;;;;;;;30.03;10.00;;;;;;;19.95;42.62;100142.41;5095327;28;20457;-53
2021/05/14 10:19:37;;;;;;;30.23;9.53;;;;;;;19.29;44.22;100138.41;5094385;28;20493;-51
2021/05/14 10:22:04;;;;;;;28.63;10.33;;;;;;;20.21;42.49;100135.25;5095558;28;20464;-51
2021/05/14 10:24:42;;;;;;;22.23;8.30;;;;;;;20.71;41.42;100134.81;5094611;28;20473;-51
2021/05/14 10:27:16;;;;;;;27.20;10.50;;;;;;;21.29;40.42;100137.69;5094857;28;20481;-50
2021/05/14 10:29:45;;;;;;;31.80;10.90;;;;;;;20.17;42.22;100144.00;5094120;28;20482;-50
2021/05/14 10:32:12;;;;;;;35.40;10.77;;;;;;;20.84;41.27;100141.69;5095172;28;20491;-52
2021/05/14 10:34:40;;;;;;;26.13;9.73;;;;;;;20.78;41.38;100139.94;5094290;28;20986;-51
2021/05/14 10:37:07;;;;;;;33.03;11.40;;;;;;;19.74;43.68;100151.22;5095433;28;20515;-51
2021/05/14 10:39:37;;;;;;;26.57;10.77;;;;;;;20.25;42.35;100147.44;5094396;28;20478;-52
2021/05/14 10:42:09;;;;;;;31.53;10.60;;;;;;;20.52;42.58;100150.72;5095321;28;20619;-55
2021/05/14 10:44:51;;;;;;;26.73;10.00;;;;;;;19.99;43.36;100151.09;5093803;28;20564;-50
2021/05/14 10:47:48;;;;;;;39.83;10.30;;;;;;;20.33;42.34;100152.59;5095010;28;20875;-52
2021/05/14 10:50:34;;;;;;;27.37;9.57;;;;;;;19.93;43.22;100158.97;5086167;28;20564;-54
2021/05/14 10:53:41;;;;;;;20.53;6.80;;;;;;;18.94;44.97;100155.03;5088276;28;20545;-54
2021/05/14 10:56:25;;;;;;;24.87;10.00;;;;;;;19.79;43.71;100143.38;5094856;28;20536;-51
2021/05/14 10:58:54;;;;;;;30.03;10.53;;;;;;;19.44;44.51;100153.16;5093740;28;20509;-51
2021/05/14 11:01:40;;;;;;;30.67;9.37;;;;;;;19.82;44.37;100156.44;5095606;28;20628;-53
2021/05/14 11:04:39;;;;;;;43.47;15.37;;;;;;;19.53;44.30;100153.09;5093989;28;20552;-52
2021/05/14 11:07:06;;;;;;;30.07;10.27;;;;;;;20.02;43.39;100161.56;5095340;28;20485;-52
2021/05/14 11:09:33;;;;;;;53.30;21.47;;;;;;;19.76;43.67;100159.97;5094169;28;20841;-52
2021/05/14 11:12:02;;;;;;;26.93;10.13;;;;;;;19.45;44.69;100152.28;5095482;28;20468;-52
2021/05/14 11:14:42;;;;;;;15.90;7.13;;;;;;;19.08;45.29;100157.63;5094547;28;20473;-50
2021/05/14 11:17:10;;;;;;;12.10;6.97;;;;;;;19.22;44.84;100152.38;5095495;28;21261;-51